Portada
METAR-TAF:

METAR-TAF

Aeroports :

Bou Saâda, Algèria

latitud: 35-20N, longitud: 004-12E, altitud: 461 m

METAR: manca

Hora: 20:51 (19:51 UTC)

Pronòstic

L'informe es va fer fa 26 hores i 51 minuts, a les 17:00 UTC
Pronòstic vàlid del 20 a les 18 UTC al 21 a les 03 UTC
Vent 8 kt del Nord/Nord-Est
Visibilitat 10 km o més
sense núvols per sota de 1500 mi sense presència de cumulonimbus.
Probabilitat 30% :
Temporalment
l' 20 a les 18 UTC al 20 a les 21 UTC
Vent 15 kt del Est/Nord-Est amb ràfegues de 25 kt
Visibilitat: 4000 m
torb baixa de sorra

TAF: DAAD 201700Z 2018/2103 02008KT CAVOK PROB30 TEMPO 2018/2021 07015G25KT 4000 DRSA

Observacions i pronòstics meteorològics de més de 4000 aeroports (METAR i TAF).

Les estacions disponibles són els punts grocs i vermells al mapa.

Posi el ratolí al punt desitjat per veure el nom de l'estació.

Feu clic per veure les observacions i els pronòstics meteorològics.

Per canviar el mapa: feu clic els botons verds amb una creu de color negre per apropar; al botó verd amb un guió per allunyar la imatge; o en les fletxes verdes per a mapes adjacents.


METAR-TAF: